Time;durP1;ratioP1;P1;durP2;ratioP2;P2;SDS_P1;SDS_P2;PMS_P1;PMS_P2;Temp;Humidity;BMP_temperature;BMP_pressure;BME280_temperature;BME280_humidity;BME280_pressure;Samples;Min_cycle;Max_cycle;Signal;HPM_P1;HPM_P2
2022/05/11 00:00:48;;;;;;;4.03;3.60;;;21.70;99.90;;;;;;5062804;28;21090;-82
2022/05/11 00:03:17;;;;;;;3.70;3.40;;;21.70;99.90;;;;;;5063448;28;20518;-78
2022/05/11 00:05:45;;;;;;;4.00;3.70;;;21.70;99.90;;;;;;5065500;28;20941;-79
2022/05/11 00:08:13;;;;;;;2.90;2.70;;;21.70;99.90;;;;;;5063026;28;20522;-80
2022/05/11 00:10:42;;;;;;;3.63;3.33;;;21.70;99.90;;;;;;5065498;28;20455;-78
2022/05/11 00:13:11;;;;;;;3.67;3.37;;;21.70;99.90;;;;;;5058754;28;20476;-80
2022/05/11 00:15:39;;;;;;;3.40;3.20;;;21.70;99.90;;;;;;5057602;28;20472;-79
2022/05/11 00:18:10;;;;;;;3.87;3.57;;;21.70;99.90;;;;;;5065599;28;20849;-81
2022/05/11 00:20:39;;;;;;;3.40;3.10;;;21.70;99.90;;;;;;5062572;28;20450;-80
2022/05/11 00:23:07;;;;;;;3.70;3.40;;;21.70;99.90;;;;;;5063461;28;20483;-81
2022/05/11 00:25:35;;;;;;;4.10;3.70;;;21.60;99.90;;;;;;5061179;28;20492;-79
2022/05/11 00:28:04;;;;;;;3.97;3.60;;;21.60;99.90;;;;;;5065650;28;20556;-79
2022/05/11 00:30:32;;;;;;;3.43;3.23;;;21.50;99.90;;;;;;5060372;28;20533;-80
2022/05/11 00:33:02;;;;;;;4.10;3.60;;;21.40;99.90;;;;;;5060824;28;20810;-79
2022/05/11 00:35:33;;;;;;;4.50;4.10;;;21.30;99.90;;;;;;5061218;28;20506;-80
2022/05/11 00:38:03;;;;;;;4.63;3.40;;;21.30;99.90;;;;;;5057796;28;20459;-80
2022/05/11 00:40:31;;;;;;;4.40;4.10;;;21.20;99.90;;;;;;5064924;28;21394;-79
2022/05/11 00:42:59;;;;;;;4.10;3.80;;;21.00;99.90;;;;;;5068512;28;20994;-84
2022/05/11 00:45:28;;;;;;;4.13;3.70;;;21.00;99.90;;;;;;5062679;28;20458;-81
2022/05/11 00:48:00;;;;;;;3.87;3.57;;;21.00;99.90;;;;;;5069677;28;20546;-78
2022/05/11 00:50:33;;;;;;;3.70;3.50;;;20.90;99.90;;;;;;5065258;28;20990;-79
2022/05/11 00:53:09;;;;;;;4.93;4.47;;;20.80;99.90;;;;;;5063465;28;20545;-78
2022/05/11 00:55:42;;;;;;;5.20;4.20;;;20.80;99.90;;;;;;5057744;28;20463;-78
2022/05/11 00:58:14;;;;;;;3.50;3.30;;;20.90;99.90;;;;;;5061874;28;20988;-83
2022/05/11 01:00:43;;;;;;;5.43;4.10;;;20.90;99.90;;;;;;5062642;28;20548;-79
2022/05/11 01:03:14;;;;;;;4.53;4.13;;;20.80;99.90;;;;;;5062913;28;20478;-79
2022/05/11 01:05:45;;;;;;;7.20;4.53;;;20.80;99.90;;;;;;5062775;28;20450;-80
2022/05/11 01:08:15;;;;;;;4.57;4.20;;;20.80;99.90;;;;;;5062782;28;20489;-79
2022/05/11 01:10:44;;;;;;;4.90;4.20;;;20.80;99.90;;;;;;5065188;28;20508;-80
2022/05/11 01:13:15;;;;;;;4.13;3.73;;;20.70;99.90;;;;;;5060965;28;20475;-79
2022/05/11 01:15:48;;;;;;;4.77;4.37;;;20.80;99.90;;;;;;5065082;28;20461;-81
2022/05/11 01:18:17;;;;;;;4.07;3.73;;;20.70;99.90;;;;;;5064368;28;20452;-78
2022/05/11 01:20:47;;;;;;;5.03;4.60;;;20.70;99.90;;;;;;5065018;28;20439;-80
2022/05/11 01:23:21;;;;;;;5.17;4.17;;;20.70;99.90;;;;;;5058123;28;20548;-78
2022/05/11 01:25:51;;;;;;;5.87;4.47;;;20.70;99.90;;;;;;5064735;28;20473;-82
2022/05/11 01:28:19;;;;;;;5.83;5.03;;;20.60;99.90;;;;;;5062311;28;20469;-79
2022/05/11 01:30:50;;;;;;;5.57;5.10;;;20.60;99.90;;;;;;5065583;28;20518;-79
2022/05/11 01:33:22;;;;;;;4.90;4.40;;;20.60;99.90;;;;;;5060146;28;20897;-81
2022/05/11 01:35:59;;;;;;;4.60;4.20;;;20.60;99.90;;;;;;5062505;28;20504;-79
2022/05/11 01:38:40;;;;;;;5.83;4.90;;;20.50;99.90;;;;;;5063615;28;20438;-78
2022/05/11 01:41:13;;;;;;;4.53;4.13;;;20.50;99.90;;;;;;5060924;28;20454;-79
2022/05/11 01:43:41;;;;;;;4.83;4.43;;;20.50;99.90;;;;;;5063844;28;20470;-79
2022/05/11 01:46:10;;;;;;;4.43;4.03;;;20.50;99.90;;;;;;5063273;28;20451;-78
2022/05/11 01:48:38;;;;;;;5.10;4.67;;;20.50;99.90;;;;;;5058736;28;20787;-79
2022/05/11 01:51:07;;;;;;;4.47;4.07;;;20.50;99.90;;;;;;5060993;28;20447;-81
2022/05/11 01:53:35;;;;;;;4.07;3.73;;;20.50;99.90;;;;;;5057829;28;21039;-77
2022/05/11 01:56:04;;;;;;;4.67;4.27;;;20.50;99.90;;;;;;5061208;28;20450;-78
2022/05/11 01:58:34;;;;;;;4.47;4.07;;;20.50;99.90;;;;;;5062873;28;20529;-78
2022/05/11 02:01:03;;;;;;;3.90;3.60;;;20.50;99.90;;;;;;5062654;28;20439;-78
2022/05/11 02:03:31;;;;;;;4.00;3.70;;;20.50;99.90;;;;;;5060523;28;20478;-78
2022/05/11 02:08:46;;;;;;;4.27;3.87;;;20.60;99.90;;;;;;5057449;28;20824;-80
2022/05/11 02:11:15;;;;;;;4.37;4.00;;;20.60;99.90;;;;;;5057950;28;20543;-79
2022/05/11 02:13:45;;;;;;;3.43;3.20;;;20.60;99.90;;;;;;5062992;28;20527;-80
2022/05/11 02:16:14;;;;;;;4.03;3.67;;;20.50;99.90;;;;;;5061826;28;20466;-78
2022/05/11 02:18:43;;;;;;;6.90;6.30;;;20.50;99.90;;;;;;5063445;28;20516;-78
2022/05/11 02:21:12;;;;;;;3.70;3.40;;;20.50;99.90;;;;;;5060022;28;20513;-78
2022/05/11 02:23:40;;;;;;;3.87;3.57;;;20.50;99.90;;;;;;5060577;28;20541;-77
2022/05/11 02:26:11;;;;;;;4.93;4.53;;;20.50;99.90;;;;;;5062473;28;20455;-79
2022/05/11 02:28:40;;;;;;;5.20;4.77;;;20.50;99.90;;;;;;5059964;28;20966;-80
2022/05/11 02:31:10;;;;;;;4.83;4.43;;;20.50;99.90;;;;;;5060102;28;20583;-76
2022/05/11 02:33:38;;;;;;;4.87;4.47;;;20.50;99.90;;;;;;5059925;28;20463;-78
2022/05/11 02:36:07;;;;;;;5.33;4.20;;;20.50;99.90;;;;;;5063037;28;20974;-78
2022/05/11 02:38:35;;;;;;;4.20;3.40;;;20.50;99.90;;;;;;5063306;28;20467;-80
2022/05/11 02:41:04;;;;;;;5.00;4.07;;;20.50;99.90;;;;;;5065835;28;21032;-79
2022/05/11 02:43:33;;;;;;;3.87;3.57;;;20.50;99.90;;;;;;5056240;28;20566;-78
2022/05/11 02:46:01;;;;;;;3.80;3.50;;;20.50;99.90;;;;;;5057752;28;20446;-79
2022/05/11 02:48:33;;;;;;;4.53;4.13;;;20.60;99.90;;;;;;5057291;28;20444;-78
2022/05/11 02:51:04;;;;;;;4.70;4.30;;;20.50;99.90;;;;;;5059834;28;21333;-79
2022/05/11 02:53:33;;;;;;;4.20;3.90;;;20.50;99.90;;;;;;5061517;28;20470;-77
2022/05/11 02:56:02;;;;;;;5.33;3.93;;;20.40;99.90;;;;;;5059784;28;20455;-78
2022/05/11 02:58:32;;;;;;;5.00;4.30;;;20.40;99.90;;;;;;5059488;28;20478;-80
2022/05/11 03:01:04;;;;;;;3.73;3.30;;;20.40;99.90;;;;;;5058340;28;20462;-78
2022/05/11 03:03:35;;;;;;;4.30;3.93;;;20.40;99.90;;;;;;5059259;28;20479;-79
2022/05/11 03:06:05;;;;;;;4.20;3.80;;;20.40;99.90;;;;;;5059944;28;20531;-79
2022/05/11 03:08:35;;;;;;;4.43;4.10;;;20.30;99.90;;;;;;5063115;28;20447;-77
2022/05/11 03:11:04;;;;;;;4.40;4.10;;;20.30;99.90;;;;;;5063246;28;20462;-78
2022/05/11 03:13:32;;;;;;;3.83;3.53;;;20.20;99.90;;;;;;5062640;28;21147;-77
2022/05/11 03:16:01;;;;;;;4.17;3.73;;;20.20;99.90;;;;;;5062207;28;20640;-80
2022/05/11 03:18:29;;;;;;;4.97;4.57;;;20.20;99.90;;;;;;5060819;28;20474;-79
2022/05/11 03:20:59;;;;;;;4.10;3.50;;;20.20;99.90;;;;;;5060296;28;20451;-79
2022/05/11 03:23:28;;;;;;;4.13;3.83;;;20.20;99.90;;;;;;5058034;28;20519;-79
2022/05/11 03:25:57;;;;;;;3.70;3.40;;;20.20;99.90;;;;;;5061937;28;20897;-79
2022/05/11 03:28:26;;;;;;;3.70;3.40;;;20.10;99.90;;;;;;5061187;28;20469;-81
2022/05/11 03:30:54;;;;;;;3.07;2.87;;;20.20;99.90;;;;;;5064151;28;20485;-78
2022/05/11 03:36:09;;;;;;;4.23;3.80;;;20.20;99.90;;;;;;5058610;28;20477;-78
2022/05/11 03:38:37;;;;;;;3.77;3.47;;;20.10;99.90;;;;;;5054659;28;20532;-80
2022/05/11 03:41:06;;;;;;;4.33;3.70;;;20.00;99.90;;;;;;5059347;28;20824;-80
2022/05/11 03:43:34;;;;;;;3.83;3.43;;;20.00;99.90;;;;;;5061030;28;20852;-79
2022/05/11 03:46:02;;;;;;;4.40;4.00;;;20.10;99.90;;;;;;5059751;28;20554;-78
2022/05/11 03:48:30;;;;;;;2.90;2.70;;;20.10;99.90;;;;;;5064179;28;21240;-79
2022/05/11 03:50:59;;;;;;;3.27;2.97;;;20.10;99.90;;;;;;5074665;28;20451;-78
2022/05/11 03:53:28;;;;;;;3.63;3.33;;;20.20;99.90;;;;;;5071846;28;20478;-78
2022/05/11 03:55:56;;;;;;;3.63;3.33;;;20.10;99.90;;;;;;5063920;28;20450;-79
2022/05/11 03:58:25;;;;;;;3.27;3.07;;;20.00;99.90;;;;;;5064251;28;21773;-78
2022/05/11 04:00:55;;;;;;;3.50;3.20;;;20.10;99.90;;;;;;5057903;28;21296;-78
2022/05/11 04:03:23;;;;;;;4.10;3.67;;;20.10;99.90;;;;;;5059478;28;20463;-78
2022/05/11 04:05:52;;;;;;;4.17;3.87;;;20.10;99.90;;;;;;5065945;28;20476;-77
2022/05/11 04:08:20;;;;;;;4.07;3.77;;;20.10;99.90;;;;;;5060594;28;20469;-77
2022/05/11 04:10:50;;;;;;;3.43;3.13;;;20.10;99.90;;;;;;5062430;28;20852;-77
2022/05/11 04:13:18;;;;;;;3.50;3.23;;;20.10;99.90;;;;;;5061749;28;20539;-78
2022/05/11 04:15:49;;;;;;;3.77;3.47;;;20.10;99.90;;;;;;5062334;28;20455;-78
2022/05/11 04:18:17;;;;;;;4.40;3.97;;;20.10;99.90;;;;;;5056893;28;20553;-78
2022/05/11 04:20:46;;;;;;;3.50;3.20;;;20.10;99.90;;;;;;5064525;28;20458;-79
2022/05/11 04:23:14;;;;;;;8.60;4.23;;;20.00;99.90;;;;;;5064403;28;20470;-78
2022/05/11 04:25:42;;;;;;;3.70;3.40;;;20.00;99.90;;;;;;5063983;28;20478;-78
2022/05/11 04:28:13;;;;;;;3.70;3.40;;;20.00;99.90;;;;;;5063410;28;20906;-77
2022/05/11 04:30:42;;;;;;;3.77;3.47;;;20.10;99.90;;;;;;5069040;28;20463;-78
2022/05/11 04:33:10;;;;;;;3.40;3.10;;;20.00;99.90;;;;;;5070339;28;20471;-79
2022/05/11 04:35:38;;;;;;;5.00;3.70;;;20.00;99.90;;;;;;5067371;28;20939;-79
2022/05/11 04:38:07;;;;;;;3.70;3.40;;;20.10;99.90;;;;;;5064178;28;20480;-79
2022/05/11 04:40:36;;;;;;;3.90;3.50;;;20.10;99.90;;;;;;5076313;28;20480;-78
2022/05/11 04:43:09;;;;;;;3.27;2.70;;;20.10;99.90;;;;;;5067798;28;21457;-79
2022/05/11 04:45:39;;;;;;;6.93;3.83;;;20.10;99.90;;;;;;5066417;28;20465;-79
2022/05/11 04:48:08;;;;;;;3.20;3.00;;;20.10;99.90;;;;;;5065380;28;20459;-79
2022/05/11 04:50:37;;;;;;;4.10;3.80;;;20.10;99.90;;;;;;5066498;28;20868;-79
2022/05/11 04:53:06;;;;;;;3.63;3.33;;;20.00;99.90;;;;;;5066415;28;20458;-79
2022/05/11 04:55:34;;;;;;;3.40;3.20;;;20.00;99.90;;;;;;5067245;28;20516;-79
2022/05/11 04:58:04;;;;;;;4.90;3.30;;;19.70;99.90;;;;;;5063511;28;20510;-80
2022/05/11 05:00:32;;;;;;;3.60;3.30;;;19.70;99.90;;;;;;5064661;28;20560;-79
2022/05/11 05:03:05;;;;;;;3.83;3.40;;;19.50;99.90;;;;;;5063798;28;20454;-79
2022/05/11 05:05:34;;;;;;;3.13;2.93;;;19.60;99.90;;;;;;5067370;28;20446;-80
2022/05/11 05:08:02;;;;;;;3.30;3.00;;;19.60;99.90;;;;;;5069231;28;20671;-82
2022/05/11 05:10:31;;;;;;;4.20;3.40;;;19.60;99.90;;;;;;5065134;28;20557;-80
2022/05/11 05:13:04;;;;;;;3.53;3.10;;;19.60;99.90;;;;;;5062175;28;20466;-81
2022/05/11 05:15:34;;;;;;;3.50;3.10;;;19.60;99.90;;;;;;5063259;28;20473;-82
2022/05/11 05:18:06;;;;;;;3.37;3.07;;;19.70;99.90;;;;;;5069291;28;20561;-81
2022/05/11 05:20:35;;;;;;;3.37;3.00;;;19.60;99.90;;;;;;5072809;28;20500;-83
2022/05/11 05:23:04;;;;;;;3.60;3.30;;;19.60;99.90;;;;;;5067694;28;20447;-79
2022/05/11 05:25:32;;;;;;;4.10;3.80;;;19.60;99.90;;;;;;5066521;28;20482;-79
2022/05/11 05:33:32;;;;;;;5.47;4.00;;;19.50;99.90;;;;;;5066211;28;20478;-79
2022/05/11 05:36:01;;;;;;;3.23;3.03;;;19.40;99.90;;;;;;5064635;28;20883;-78
2022/05/11 05:38:33;;;;;;;4.23;3.83;;;19.50;99.90;;;;;;5057640;28;20864;-81
2022/05/11 05:41:01;;;;;;;4.43;3.60;;;19.60;99.90;;;;;;5061813;28;20458;-79
2022/05/11 05:43:30;;;;;;;3.10;2.90;;;19.70;99.90;;;;;;5058448;28;20856;-79
2022/05/11 05:45:58;;;;;;;3.70;3.50;;;19.70;99.90;;;;;;5059693;28;20458;-78
2022/05/11 05:48:26;;;;;;;4.10;3.70;;;19.50;99.90;;;;;;5059400;28;20462;-77
2022/05/11 05:51:02;;;;;;;3.53;3.30;;;19.30;99.90;;;;;;5061370;28;20504;-79
2022/05/11 05:53:30;;;;;;;3.53;3.23;;;19.40;99.90;;;;;;5062034;28;20479;-79
2022/05/11 05:55:58;;;;;;;3.40;3.20;;;19.60;99.90;;;;;;5061528;28;20455;-79
2022/05/11 05:58:27;;;;;;;4.53;3.93;;;19.80;99.90;;;;;;5061858;28;21384;-79
2022/05/11 06:00:56;;;;;;;3.47;3.17;;;19.80;99.90;;;;;;5062418;28;20438;-79
2022/05/11 06:03:25;;;;;;;3.60;3.30;;;19.90;99.90;;;;;;5056186;28;20489;-78
2022/05/11 06:05:55;;;;;;;4.20;3.80;;;20.10;99.90;;;;;;5058611;28;20513;-80
2022/05/11 06:08:23;;;;;;;3.37;3.17;;;20.20;99.90;;;;;;5061126;28;20450;-79
2022/05/11 06:10:55;;;;;;;4.37;4.07;;;20.30;99.90;;;;;;5063571;28;20454;-78
2022/05/11 06:13:24;;;;;;;4.07;3.10;;;20.40;99.90;;;;;;5054751;28;20471;-79
2022/05/11 06:15:53;;;;;;;4.43;4.03;;;20.60;99.90;;;;;;5058017;28;20454;-79
2022/05/11 06:18:22;;;;;;;4.10;3.70;;;20.60;99.90;;;;;;5060621;28;20446;-79
2022/05/11 06:20:51;;;;;;;4.07;3.57;;;20.50;99.90;;;;;;5056128;28;20519;-79
2022/05/11 06:23:22;;;;;;;3.60;3.30;;;20.50;99.90;;;;;;5066187;28;20485;-79
2022/05/11 06:25:51;;;;;;;2.93;2.60;;;20.20;99.90;;;;;;5059219;28;20475;-79
2022/05/11 06:28:20;;;;;;;3.97;3.67;;;20.30;99.90;;;;;;5061032;28;21200;-79
2022/05/11 06:31:09;;;;;;;3.20;2.90;;;20.50;99.90;;;;;;5060056;28;21050;-80
2022/05/11 06:33:45;;;;;;;3.80;3.50;;;20.60;99.90;;;;;;5062173;28;20644;-80
2022/05/11 06:36:14;;;;;;;3.57;3.27;;;20.60;99.90;;;;;;5062470;28;20702;-80
2022/05/11 06:38:44;;;;;;;3.30;3.00;;;20.80;99.90;;;;;;5057582;28;20462;-80
2022/05/11 06:41:14;;;;;;;3.37;3.00;;;21.00;99.90;;;;;;5059151;28;20454;-80
2022/05/11 06:43:44;;;;;;;3.13;2.93;;;21.20;99.90;;;;;;5060069;28;20469;-80
2022/05/11 06:46:13;;;;;;;3.20;2.90;;;21.50;99.90;;;;;;5061133;28;20462;-78
2022/05/11 06:48:41;;;;;;;3.33;3.03;;;21.80;99.90;;;;;;5059358;28;20553;-79
2022/05/11 06:51:10;;;;;;;4.57;2.80;;;21.90;99.90;;;;;;5061772;28;20463;-80
2022/05/11 07:01:50;;;;;;;3.83;3.50;;;22.70;99.90;;;;;;5057103;28;20454;-79
2022/05/11 07:04:18;;;;;;;3.43;2.90;;;22.90;99.90;;;;;;5057268;28;20510;-80
2022/05/11 07:06:46;;;;;;;3.00;2.80;;;23.10;99.90;;;;;;5064587;28;20452;-85
2022/05/11 07:09:14;;;;;;;2.80;2.43;;;23.20;99.90;;;;;;5067749;28;20471;-83
2022/05/11 07:14:30;;;;;;;2.97;2.53;;;23.50;99.90;;;;;;5064552;28;20490;-84
2022/05/11 07:16:58;;;;;;;3.33;2.67;;;23.60;99.90;;;;;;5061798;28;20455;-84
2022/05/11 07:19:26;;;;;;;2.80;2.60;;;23.70;99.90;;;;;;5064643;28;20482;-83
2022/05/11 07:21:55;;;;;;;2.77;2.57;;;23.80;99.90;;;;;;5058643;28;20466;-83
2022/05/11 07:24:23;;;;;;;3.07;2.87;;;23.70;99.90;;;;;;5065734;28;20482;-83
2022/05/11 07:26:54;;;;;;;3.33;2.53;;;23.80;99.90;;;;;;5071372;28;20454;-84
2022/05/11 07:29:23;;;;;;;4.63;2.60;;;23.80;99.90;;;;;;5061620;28;20551;-83
2022/05/11 07:31:51;;;;;;;2.67;2.47;;;23.70;99.90;;;;;;5068691;28;20527;-84
2022/05/11 07:34:19;;;;;;;2.90;2.70;;;23.60;99.90;;;;;;5063395;28;20528;-83
2022/05/11 07:36:48;;;;;;;2.40;2.20;;;23.60;99.90;;;;;;5087659;28;20447;-83
2022/05/11 07:39:17;;;;;;;4.10;2.90;;;23.60;99.90;;;;;;5076484;28;20532;-84
2022/05/11 07:41:45;;;;;;;3.87;2.57;;;23.60;99.90;;;;;;5066922;28;21250;-83
2022/05/11 07:44:15;;;;;;;3.10;2.33;;;23.50;99.90;;;;;;5062293;28;20479;-83
2022/05/11 07:46:44;;;;;;;2.90;2.70;;;23.40;99.90;;;;;;5068814;28;20462;-84
2022/05/11 07:49:13;;;;;;;4.00;2.37;;;23.40;99.90;;;;;;5068118;28;20446;-84
2022/05/11 07:51:43;;;;;;;2.63;2.53;;;23.40;99.90;;;;;;5061521;28;20459;-83
2022/05/11 07:54:12;;;;;;;2.20;2.10;;;23.30;99.90;;;;;;5070775;28;20482;-84
2022/05/11 08:02:14;;;;;;;2.20;2.10;;;23.40;99.90;;;;;;5067540;28;20450;-84
2022/05/11 08:04:43;;;;;;;4.63;3.27;;;23.30;99.90;;;;;;5071713;28;20876;-83
2022/05/11 08:07:13;;;;;;;2.67;2.47;;;23.30;99.90;;;;;;5072009;28;21035;-83
2022/05/11 08:09:41;;;;;;;3.47;2.60;;;23.40;99.90;;;;;;5069639;28;20443;-84
2022/05/11 08:12:10;;;;;;;3.33;2.97;;;23.30;99.90;;;;;;5059334;28;20466;-83
2022/05/11 08:14:40;;;;;;;2.60;2.40;;;23.20;99.90;;;;;;5069093;28;20481;-84
2022/05/11 08:17:08;;;;;;;3.30;3.10;;;23.20;99.90;;;;;;5065037;28;20454;-84
2022/05/11 08:19:37;;;;;;;2.90;2.30;;;23.20;99.90;;;;;;5064709;28;21028;-84
2022/05/11 08:22:05;;;;;;;4.77;2.20;;;23.20;99.90;;;;;;5069669;28;20455;-83
2022/05/11 08:24:34;;;;;;;3.03;2.70;;;23.20;99.90;;;;;;5074897;28;20504;-82
2022/05/11 08:27:03;;;;;;;3.20;2.90;;;23.10;99.90;;;;;;5069035;28;20470;-83
2022/05/11 08:35:00;;;;;;;2.60;2.40;;;23.40;99.90;;;;;;5067157;28;20479;-82
2022/05/11 08:37:28;;;;;;;2.60;2.50;;;23.50;99.90;;;;;;5062600;28;20452;-83
2022/05/11 08:39:57;;;;;;;3.00;2.80;;;23.40;99.90;;;;;;5077099;28;21003;-83
2022/05/11 08:42:29;;;;;;;2.70;2.50;;;23.40;99.90;;;;;;5058058;28;20464;-83
2022/05/11 08:45:02;;;;;;;3.07;2.27;;;23.50;99.90;;;;;;5065727;28;20555;-84
2022/05/11 08:47:43;;;;;;;4.30;2.30;;;23.60;99.90;;;;;;5072069;28;20447;-84
2022/05/11 08:50:16;;;;;;;2.70;2.50;;;23.60;99.90;;;;;;5061707;28;20450;-84
2022/05/11 08:52:52;;;;;;;2.87;2.67;;;23.60;99.90;;;;;;5062918;28;20975;-84
2022/05/11 08:55:38;;;;;;;2.87;2.67;;;23.70;99.90;;;;;;5073054;28;20455;-83
2022/05/11 08:58:10;;;;;;;3.13;2.90;;;23.80;99.90;;;;;;5072252;28;20458;-80
2022/05/11 09:00:40;;;;;;;3.53;3.23;;;23.90;99.90;;;;;;5057218;28;20477;-81
2022/05/11 09:03:20;;;;;;;3.93;2.70;;;24.00;99.90;;;;;;5057391;28;21035;-80
2022/05/11 09:05:49;;;;;;;3.43;3.13;;;23.90;99.90;;;;;;5063390;28;20450;-80
2022/05/11 09:08:17;;;;;;;3.43;3.03;;;23.80;99.90;;;;;;5057096;28;20825;-80
2022/05/11 09:10:46;;;;;;;2.90;2.70;;;23.70;99.90;;;;;;5061420;28;20450;-80
2022/05/11 09:13:16;;;;;;;4.57;3.17;;;23.80;99.90;;;;;;5066334;28;20467;-80
2022/05/11 09:16:00;;;;;;;3.67;3.33;;;23.90;99.90;;;;;;5052774;28;20459;-79
2022/05/11 09:18:40;;;;;;;3.80;3.50;;;24.00;99.90;;;;;;5057719;28;20543;-80
2022/05/11 09:21:31;;;;;;;3.13;2.83;;;24.20;99.90;;;;;;5064959;28;20478;-79
2022/05/11 09:24:08;;;;;;;3.00;2.80;;;24.00;99.90;;;;;;5063126;28;20518;-81
2022/05/11 09:26:39;;;;;;;3.53;3.10;;;24.10;99.90;;;;;;5065182;28;20542;-79
2022/05/11 09:29:20;;;;;;;3.13;2.93;;;24.20;99.90;;;;;;5058332;28;20884;-79
2022/05/11 09:31:50;;;;;;;3.43;3.13;;;24.00;99.90;;;;;;5060934;28;20443;-79
2022/05/11 09:34:28;;;;;;;4.80;3.33;;;24.10;99.90;;;;;;5061172;28;20573;-79
2022/05/11 09:37:01;;;;;;;3.60;3.13;;;24.30;99.90;;;;;;5062564;28;20442;-79
2022/05/11 09:39:31;;;;;;;4.07;3.57;;;24.50;99.90;;;;;;5065354;28;20468;-79
2022/05/11 09:42:13;;;;;;;3.50;3.30;;;24.50;99.90;;;;;;5067333;28;20514;-79
2022/05/11 09:44:43;;;;;;;3.70;3.47;;;24.40;99.90;;;;;;5064391;28;20485;-78
2022/05/11 09:47:28;;;;;;;3.47;3.17;;;24.30;99.90;;;;;;5068209;28;20818;-78
2022/05/11 09:50:14;;;;;;;4.57;3.03;;;24.40;99.90;;;;;;5056751;28;20463;-79
2022/05/11 09:52:44;;;;;;;3.17;2.97;;;24.50;99.90;;;;;;5064928;28;20446;-80
2022/05/11 09:55:20;;;;;;;3.70;3.40;;;24.70;99.90;;;;;;5066822;28;20458;-79
2022/05/11 09:57:58;;;;;;;2.77;2.57;;;24.80;99.90;;;;;;5064522;28;20557;-79
2022/05/11 10:00:33;;;;;;;3.30;3.00;;;24.90;99.90;;;;;;5054300;28;20463;-79
2022/05/11 10:03:04;;;;;;;2.53;2.43;;;24.80;99.90;;;;;;5097611;28;20469;-79
2022/05/11 10:05:39;;;;;;;3.27;2.87;;;24.70;99.90;;;;;;5059403;28;20995;-78
2022/05/11 10:08:18;;;;;;;3.63;3.33;;;24.60;99.90;;;;;;5055185;28;20451;-79
2022/05/11 10:10:53;;;;;;;3.50;2.57;;;24.70;99.90;;;;;;5059486;28;20450;-79
2022/05/11 10:13:27;;;;;;;3.00;2.10;;;24.80;99.90;;;;;;5058495;28;21016;-80
2022/05/11 10:21:53;;;;;;;4.73;3.10;;;25.00;99.90;;;;;;5056363;28;22358;-79
2022/05/11 10:24:35;;;;;;;3.80;2.63;;;25.10;99.90;;;;;;5059054;28;20553;-79
2022/05/11 10:27:13;;;;;;;3.23;2.93;;;25.10;99.90;;;;;;5060225;28;20952;-80
2022/05/11 10:29:52;;;;;;;3.13;2.77;;;25.30;99.90;;;;;;5056736;28;20459;-76
2022/05/11 10:32:25;;;;;;;3.47;3.00;;;25.20;99.90;;;;;;5062668;28;20458;-79
2022/05/11 10:35:03;;;;;;;3.80;2.57;;;25.40;99.90;;;;;;5064421;28;20480;-77
2022/05/11 10:37:44;;;;;;;3.83;3.40;;;25.40;99.90;;;;;;5065605;28;20465;-79
2022/05/11 10:40:23;;;;;;;2.83;2.60;;;25.30;99.90;;;;;;5069720;28;20458;-83
2022/05/11 10:43:03;;;;;;;2.63;2.43;;;25.40;99.90;;;;;;5071651;28;20478;-81
2022/05/11 10:45:41;;;;;;;2.63;2.10;;;25.40;99.90;;;;;;5071322;28;20454;-80
2022/05/11 10:48:23;;;;;;;4.40;2.50;;;25.40;99.90;;;;;;5072977;28;20465;-83
2022/05/11 10:50:57;;;;;;;3.67;3.40;;;25.50;99.90;;;;;;5064427;28;20451;-79
2022/05/11 10:53:39;;;;;;;3.07;2.87;;;25.50;99.90;;;;;;5062452;28;20480;-80
2022/05/11 10:56:30;;;;;;;3.13;2.93;;;25.50;99.90;;;;;;5066218;28;20474;-79
2022/05/11 10:59:25;;;;;;;2.37;2.27;;;25.60;99.90;;;;;;5063854;28;20459;-79
2022/05/11 11:02:12;;;;;;;3.03;1.90;;;25.80;99.90;;;;;;5045625;28;20487;-79
2022/05/11 11:04:56;;;;;;;2.80;2.47;;;25.70;99.90;;;;;;5066488;28;21023;-79
2022/05/11 11:07:31;;;;;;;2.67;2.23;;;25.50;99.90;;;;;;5071910;28;20442;-78
2022/05/11 11:10:27;;;;;;;3.60;3.10;;;25.50;99.90;;;;;;5073406;28;20508;-79
2022/05/11 11:13:23;;;;;;;8.30;2.60;;;25.50;99.90;;;;;;5076315;28;21245;-79
2022/05/11 11:15:53;;;;;;;2.73;2.53;;;25.70;99.90;;;;;;5067265;28;20977;-79
2022/05/11 11:18:31;;;;;;;3.27;2.97;;;25.60;99.90;;;;;;5070857;28;20454;-79
2022/05/11 11:21:02;;;;;;;2.20;2.10;;;25.60;99.90;;;;;;5067148;28;20451;-79
2022/05/11 11:23:36;;;;;;;2.70;2.20;;;25.60;99.90;;;;;;5068829;28;20553;-79
2022/05/11 11:26:09;;;;;;;2.60;2.40;;;25.70;99.90;;;;;;5068522;28;20454;-79
2022/05/11 11:29:18;;;;;;;3.10;2.30;;;25.90;99.90;;;;;;5069508;28;20473;-79
2022/05/11 11:32:19;;;;;;;5.00;3.10;;;25.90;99.90;;;;;;5063628;28;20462;-78
2022/05/11 11:34:52;;;;;;;3.40;2.60;;;25.80;99.90;;;;;;5044655;28;21083;-80
2022/05/11 11:37:44;;;;;;;2.90;2.50;;;25.80;99.90;;;;;;5067060;28;22237;-79
2022/05/11 11:40:34;;;;;;;4.03;2.73;;;25.90;99.90;;;;;;5064450;28;20485;-79
2022/05/11 11:46:28;;;;;;;2.23;2.13;;;26.20;99.90;;;;;;5064679;28;20992;-79
2022/05/11 11:49:06;;;;;;;2.30;2.20;;;26.40;99.90;;;;;;5066572;28;20446;-79
2022/05/11 11:51:56;;;;;;;2.63;2.00;;;26.20;99.90;;;;;;5062101;28;20468;-79
2022/05/11 11:54:31;;;;;;;2.43;2.33;;;26.20;99.90;;;;;;5068090;28;20478;-80
2022/05/11 11:57:01;;;;;;;2.00;1.80;;;26.40;99.90;;;;;;5070332;28;20957;-80
2022/05/11 11:59:35;;;;;;;2.47;1.87;;;26.40;99.90;;;;;;5065597;28;20446;-80
2022/05/11 12:02:17;;;;;;;3.00;2.70;;;26.40;99.90;;;;;;5062938;28;20479;-80
2022/05/11 12:04:55;;;;;;;4.33;2.37;;;25.90;99.90;;;;;;5064397;28;20534;-79
2022/05/11 12:16:00;;;;;;;1.70;1.53;;;26.40;99.90;;;;;;5067643;28;20524;-79
2022/05/11 12:18:33;;;;;;;2.63;2.43;;;26.40;99.90;;;;;;5065599;28;20970;-79
2022/05/11 12:21:02;;;;;;;2.70;2.00;;;26.40;99.90;;;;;;5065857;28;20454;-81
2022/05/11 12:23:34;;;;;;;2.77;2.20;;;26.40;99.90;;;;;;5061781;28;20486;-80
2022/05/11 12:26:06;;;;;;;2.40;2.00;;;26.50;99.90;;;;;;5068714;28;20834;-79
2022/05/11 12:28:38;;;;;;;3.60;1.97;;;26.50;99.90;;;;;;5066353;28;20469;-80
2022/05/11 12:31:07;;;;;;;2.27;2.07;;;26.70;99.90;;;;;;5070144;28;20480;-79
2022/05/11 12:33:40;;;;;;;1.70;1.60;;;26.80;99.90;;;;;;5064493;28;20477;-79
2022/05/11 12:36:09;;;;;;;2.57;1.73;;;26.80;99.90;;;;;;5060963;28;20815;-82
2022/05/11 12:38:39;;;;;;;1.83;1.70;;;26.80;99.90;;;;;;5053295;28;20444;-79
2022/05/11 12:41:15;;;;;;;2.07;1.73;;;26.70;99.90;;;;;;5063372;28;20541;-79
2022/05/11 12:43:59;;;;;;;1.80;1.70;;;26.80;99.90;;;;;;5058728;28;20479;-80
2022/05/11 12:46:28;;;;;;;3.43;2.13;;;26.70;99.90;;;;;;5060843;28;20461;-80
2022/05/11 12:49:01;;;;;;;2.30;1.60;;;26.60;99.90;;;;;;5058944;28;20454;-79
2022/05/11 12:51:32;;;;;;;1.93;1.70;;;26.50;99.90;;;;;;5061962;28;20472;-80
2022/05/11 12:54:04;;;;;;;2.77;2.57;;;26.50;99.90;;;;;;5061009;28;20463;-79
2022/05/11 12:56:35;;;;;;;2.37;1.67;;;26.60;99.90;;;;;;5066684;28;20981;-80
2022/05/11 12:59:05;;;;;;;2.10;1.77;;;26.70;99.90;;;;;;5061865;28;21906;-79
2022/05/11 13:01:35;;;;;;;2.07;1.50;;;26.70;99.90;;;;;;5066030;28;20454;-79
2022/05/11 13:04:18;;;;;;;3.83;2.10;;;26.60;99.90;;;;;;5059119;28;20581;-80
2022/05/11 13:06:50;;;;;;;1.67;1.50;;;26.70;99.90;;;;;;5061476;28;20443;-79
2022/05/11 13:09:25;;;;;;;2.07;1.80;;;26.90;99.90;;;;;;5063739;28;20511;-79
2022/05/11 13:11:54;;;;;;;2.00;1.90;;;26.90;99.90;;;;;;5063803;28;20810;-79
2022/05/11 13:14:28;;;;;;;1.70;1.60;;;27.10;99.90;;;;;;5062901;28;21025;-80
2022/05/11 13:17:00;;;;;;;1.83;1.40;;;27.20;99.90;;;;;;5063071;28;20466;-79
2022/05/11 13:19:32;;;;;;;6.43;1.70;;;27.10;99.90;;;;;;5063002;28;20483;-81
2022/05/11 13:22:04;;;;;;;2.27;1.80;;;26.80;99.90;;;;;;5061273;28;20557;-79
2022/05/11 13:24:42;;;;;;;2.20;1.50;;;26.70;99.90;;;;;;5056526;28;20518;-80
2022/05/11 13:27:36;;;;;;;1.80;1.70;;;26.70;99.90;;;;;;5066119;28;20454;-81
2022/05/11 13:30:21;;;;;;;1.70;1.60;;;26.70;99.90;;;;;;5064643;28;20459;-81
2022/05/11 13:32:51;;;;;;;3.33;1.97;;;26.80;99.90;;;;;;5059182;28;20459;-79
2022/05/11 13:35:32;;;;;;;1.73;1.40;;;26.70;99.90;;;;;;5053074;28;20483;-79
2022/05/11 13:38:05;;;;;;;2.37;1.50;;;26.60;99.90;;;;;;5065879;28;20460;-81
2022/05/11 13:40:35;;;;;;;3.67;1.53;;;26.70;99.90;;;;;;5063371;28;20454;-81
2022/05/11 13:43:18;;;;;;;2.10;1.83;;;26.70;99.90;;;;;;5055336;28;20839;-81
2022/05/11 13:45:58;;;;;;;2.70;1.60;;;26.80;99.90;;;;;;5061964;28;20466;-80
2022/05/11 13:48:29;;;;;;;3.33;1.87;;;26.80;99.90;;;;;;5062822;28;20944;-80
2022/05/11 13:51:14;;;;;;;2.13;1.80;;;26.90;99.90;;;;;;5066238;28;20469;-81
2022/05/11 13:53:43;;;;;;;1.97;1.87;;;27.00;99.90;;;;;;5064696;28;20483;-80
2022/05/11 13:56:22;;;;;;;2.97;1.50;;;27.00;99.90;;;;;;5066468;28;20466;-81
2022/05/11 13:59:10;;;;;;;3.30;1.80;;;26.90;99.90;;;;;;5062621;28;20454;-80
2022/05/11 14:01:44;;;;;;;1.77;1.67;;;27.00;99.90;;;;;;5067030;28;20501;-80
2022/05/11 14:04:18;;;;;;;2.90;1.60;;;27.10;99.90;;;;;;5064712;28;20477;-80